sensor_id;sensor_type;location;lat;lon;timestamp;P1;durP1;ratioP1;P2;durP2;ratioP2
36415;SDS011;22447;44.530;18.620;2023-01-05T00:02:24;252.15;;;123.38;;
36415;SDS011;22447;44.530;18.620;2023-01-05T00:04:50;254.93;;;124.32;;
36415;SDS011;22447;44.530;18.620;2023-01-05T00:07:16;285.13;;;135.40;;
36415;SDS011;22447;44.530;18.620;2023-01-05T00:09:42;303.98;;;140.32;;
36415;SDS011;22447;44.530;18.620;2023-01-05T00:12:08;298.08;;;143.43;;
36415;SDS011;22447;44.530;18.620;2023-01-05T00:14:52;328.73;;;150.82;;
36415;SDS011;22447;44.530;18.620;2023-01-05T00:17:37;368.50;;;168.93;;
36415;SDS011;22447;44.530;18.620;2023-01-05T00:20:21;391.58;;;179.63;;
36415;SDS011;22447;44.530;18.620;2023-01-05T00:23:06;378.50;;;179.27;;
36415;SDS011;22447;44.530;18.620;2023-01-05T00:25:35;372.85;;;176.50;;
36415;SDS011;22447;44.530;18.620;2023-01-05T00:28:03;350.45;;;158.98;;
36415;SDS011;22447;44.530;18.620;2023-01-05T00:30:42;352.50;;;163.23;;
36415;SDS011;22447;44.530;18.620;2023-01-05T00:33:11;401.17;;;178.07;;
36415;SDS011;22447;44.530;18.620;2023-01-05T00:35:39;351.63;;;156.38;;
36415;SDS011;22447;44.530;18.620;2023-01-05T00:38:05;314.80;;;144.80;;
36415;SDS011;22447;44.530;18.620;2023-01-05T00:40:33;300.50;;;143.55;;
36415;SDS011;22447;44.530;18.620;2023-01-05T00:42:59;351.08;;;159.80;;
36415;SDS011;22447;44.530;18.620;2023-01-05T00:45:26;378.42;;;171.75;;
36415;SDS011;22447;44.530;18.620;2023-01-05T00:47:52;368.08;;;163.85;;
36415;SDS011;22447;44.530;18.620;2023-01-05T00:50:19;426.35;;;188.90;;
36415;SDS011;22447;44.530;18.620;2023-01-05T00:52:46;420.48;;;192.30;;
36415;SDS011;22447;44.530;18.620;2023-01-05T00:55:13;450.98;;;201.60;;
36415;SDS011;22447;44.530;18.620;2023-01-05T00:57:39;384.80;;;171.77;;
36415;SDS011;22447;44.530;18.620;2023-01-05T01:00:07;344.23;;;153.52;;
36415;SDS011;22447;44.530;18.620;2023-01-05T01:02:41;363.45;;;158.77;;
36415;SDS011;22447;44.530;18.620;2023-01-05T01:05:08;361.45;;;160.80;;
36415;SDS011;22447;44.530;18.620;2023-01-05T01:07:34;392.42;;;168.40;;
36415;SDS011;22447;44.530;18.620;2023-01-05T01:10:03;401.38;;;176.55;;
36415;SDS011;22447;44.530;18.620;2023-01-05T01:12:30;421.50;;;182.50;;
36415;SDS011;22447;44.530;18.620;2023-01-05T01:14:56;410.98;;;177.52;;
36415;SDS011;22447;44.530;18.620;2023-01-05T01:17:22;402.15;;;177.30;;
36415;SDS011;22447;44.530;18.620;2023-01-05T01:19:48;403.45;;;179.73;;
36415;SDS011;22447;44.530;18.620;2023-01-05T01:22:14;414.63;;;193.50;;
36415;SDS011;22447;44.530;18.620;2023-01-05T01:24:40;482.88;;;223.38;;
36415;SDS011;22447;44.530;18.620;2023-01-05T01:27:06;515.63;;;243.65;;
36415;SDS011;22447;44.530;18.620;2023-01-05T01:29:32;511.98;;;248.18;;
36415;SDS011;22447;44.530;18.620;2023-01-05T01:31:58;485.75;;;231.15;;
36415;SDS011;22447;44.530;18.620;2023-01-05T01:34:24;474.73;;;216.65;;
36415;SDS011;22447;44.530;18.620;2023-01-05T01:36:53;476.00;;;225.00;;
36415;SDS011;22447;44.530;18.620;2023-01-05T01:41:53;494.30;;;224.85;;
36415;SDS011;22447;44.530;18.620;2023-01-05T01:52:43;450.88;;;208.55;;
36415;SDS011;22447;44.530;18.620;2023-01-05T01:55:12;482.10;;;219.07;;
36415;SDS011;22447;44.530;18.620;2023-01-05T01:57:38;477.02;;;210.57;;
36415;SDS011;22447;44.530;18.620;2023-01-05T02:00:06;440.17;;;199.43;;
36415;SDS011;22447;44.530;18.620;2023-01-05T02:02:42;468.02;;;215.23;;
36415;SDS011;22447;44.530;18.620;2023-01-05T02:07:46;397.90;;;174.05;;
36415;SDS011;22447;44.530;18.620;2023-01-05T02:10:13;423.85;;;192.00;;
36415;SDS011;22447;44.530;18.620;2023-01-05T02:12:47;449.90;;;203.48;;
36415;SDS011;22447;44.530;18.620;2023-01-05T02:20:58;405.75;;;178.85;;
36415;SDS011;22447;44.530;18.620;2023-01-05T02:23:31;405.65;;;175.13;;
36415;SDS011;22447;44.530;18.620;2023-01-05T02:37:19;333.10;;;144.43;;
36415;SDS011;22447;44.530;18.620;2023-01-05T02:40:04;264.40;;;122.25;;
36415;SDS011;22447;44.530;18.620;2023-01-05T02:42:37;236.80;;;106.72;;
36415;SDS011;22447;44.530;18.620;2023-01-05T02:45:06;206.30;;;98.05;;
36415;SDS011;22447;44.530;18.620;2023-01-05T02:47:41;214.43;;;100.43;;
36415;SDS011;22447;44.530;18.620;2023-01-05T02:53:18;217.55;;;100.15;;
36415;SDS011;22447;44.530;18.620;2023-01-05T02:55:59;201.77;;;90.47;;
36415;SDS011;22447;44.530;18.620;2023-01-05T03:01:01;270.02;;;123.78;;
36415;SDS011;22447;44.530;18.620;2023-01-05T03:03:55;273.50;;;125.53;;
36415;SDS011;22447;44.530;18.620;2023-01-05T03:06:30;291.30;;;129.97;;
36415;SDS011;22447;44.530;18.620;2023-01-05T03:08:59;279.40;;;129.07;;
36415;SDS011;22447;44.530;18.620;2023-01-05T03:11:32;279.77;;;128.77;;
36415;SDS011;22447;44.530;18.620;2023-01-05T03:14:31;283.17;;;130.20;;
36415;SDS011;22447;44.530;18.620;2023-01-05T03:17:01;252.73;;;117.43;;
36415;SDS011;22447;44.530;18.620;2023-01-05T03:19:32;199.02;;;88.05;;
36415;SDS011;22447;44.530;18.620;2023-01-05T03:22:09;178.77;;;87.30;;
36415;SDS011;22447;44.530;18.620;2023-01-05T03:25:07;195.07;;;93.20;;
36415;SDS011;22447;44.530;18.620;2023-01-05T03:27:56;254.77;;;116.68;;
36415;SDS011;22447;44.530;18.620;2023-01-05T03:30:51;284.65;;;125.18;;
36415;SDS011;22447;44.530;18.620;2023-01-05T03:36:43;284.33;;;129.10;;
36415;SDS011;22447;44.530;18.620;2023-01-05T03:39:22;295.63;;;132.80;;
36415;SDS011;22447;44.530;18.620;2023-01-05T03:41:52;340.58;;;152.77;;
36415;SDS011;22447;44.530;18.620;2023-01-05T03:44:20;327.42;;;145.25;;
36415;SDS011;22447;44.530;18.620;2023-01-05T03:46:46;340.83;;;151.30;;
36415;SDS011;22447;44.530;18.620;2023-01-05T03:49:12;353.50;;;161.15;;
36415;SDS011;22447;44.530;18.620;2023-01-05T03:51:38;320.67;;;141.23;;
36415;SDS011;22447;44.530;18.620;2023-01-05T03:54:04;342.55;;;145.80;;
36415;SDS011;22447;44.530;18.620;2023-01-05T03:56:32;295.38;;;132.43;;
36415;SDS011;22447;44.530;18.620;2023-01-05T03:58:58;251.52;;;115.05;;
36415;SDS011;22447;44.530;18.620;2023-01-05T04:01:24;217.95;;;93.72;;
36415;SDS011;22447;44.530;18.620;2023-01-05T04:03:51;200.57;;;89.63;;
36415;SDS011;22447;44.530;18.620;2023-01-05T04:06:17;192.48;;;85.38;;
36415;SDS011;22447;44.530;18.620;2023-01-05T04:08:43;195.55;;;88.60;;
36415;SDS011;22447;44.530;18.620;2023-01-05T04:11:10;210.85;;;92.55;;
36415;SDS011;22447;44.530;18.620;2023-01-05T04:13:51;235.73;;;104.38;;
36415;SDS011;22447;44.530;18.620;2023-01-05T04:16:18;213.10;;;102.03;;
36415;SDS011;22447;44.530;18.620;2023-01-05T04:18:44;236.02;;;104.50;;
36415;SDS011;22447;44.530;18.620;2023-01-05T04:21:12;208.20;;;99.47;;
36415;SDS011;22447;44.530;18.620;2023-01-05T04:23:38;239.02;;;107.75;;
36415;SDS011;22447;44.530;18.620;2023-01-05T04:26:04;213.70;;;94.65;;
36415;SDS011;22447;44.530;18.620;2023-01-05T04:28:32;257.65;;;94.55;;
36415;SDS011;22447;44.530;18.620;2023-01-05T04:30:58;193.60;;;84.63;;
36415;SDS011;22447;44.530;18.620;2023-01-05T04:33:25;175.38;;;78.00;;
36415;SDS011;22447;44.530;18.620;2023-01-05T04:35:52;218.88;;;102.10;;
36415;SDS011;22447;44.530;18.620;2023-01-05T04:38:18;226.82;;;106.10;;
36415;SDS011;22447;44.530;18.620;2023-01-05T04:40:47;249.43;;;108.90;;
36415;SDS011;22447;44.530;18.620;2023-01-05T04:43:15;206.93;;;96.07;;
36415;SDS011;22447;44.530;18.620;2023-01-05T04:45:44;209.23;;;98.70;;
36415;SDS011;22447;44.530;18.620;2023-01-05T04:48:12;174.95;;;84.32;;
36415;SDS011;22447;44.530;18.620;2023-01-05T04:50:38;187.18;;;89.47;;
36415;SDS011;22447;44.530;18.620;2023-01-05T04:53:06;207.27;;;95.53;;
36415;SDS011;22447;44.530;18.620;2023-01-05T04:55:34;212.40;;;98.45;;
36415;SDS011;22447;44.530;18.620;2023-01-05T04:58:01;205.77;;;89.55;;
36415;SDS011;22447;44.530;18.620;2023-01-05T05:00:28;212.80;;;98.38;;
36415;SDS011;22447;44.530;18.620;2023-01-05T05:02:58;218.18;;;101.55;;
36415;SDS011;22447;44.530;18.620;2023-01-05T05:05:24;214.63;;;96.78;;
36415;SDS011;22447;44.530;18.620;2023-01-05T05:07:52;202.60;;;94.05;;
36415;SDS011;22447;44.530;18.620;2023-01-05T05:10:20;206.48;;;95.32;;
36415;SDS011;22447;44.530;18.620;2023-01-05T05:12:46;214.57;;;102.47;;
36415;SDS011;22447;44.530;18.620;2023-01-05T05:15:12;238.07;;;107.65;;
36415;SDS011;22447;44.530;18.620;2023-01-05T05:20:11;243.10;;;109.72;;
36415;SDS011;22447;44.530;18.620;2023-01-05T05:22:37;256.95;;;113.80;;
36415;SDS011;22447;44.530;18.620;2023-01-05T05:25:04;230.18;;;105.40;;
36415;SDS011;22447;44.530;18.620;2023-01-05T05:27:31;225.88;;;103.80;;
36415;SDS011;22447;44.530;18.620;2023-01-05T05:29:57;239.95;;;101.28;;
36415;SDS011;22447;44.530;18.620;2023-01-05T05:32:22;234.35;;;108.18;;
36415;SDS011;22447;44.530;18.620;2023-01-05T05:34:48;235.73;;;103.47;;
36415;SDS011;22447;44.530;18.620;2023-01-05T05:37:14;240.05;;;104.10;;
36415;SDS011;22447;44.530;18.620;2023-01-05T05:39:40;222.27;;;103.55;;
36415;SDS011;22447;44.530;18.620;2023-01-05T05:42:06;213.82;;;98.25;;
36415;SDS011;22447;44.530;18.620;2023-01-05T05:44:32;205.90;;;98.63;;
36415;SDS011;22447;44.530;18.620;2023-01-05T05:46:58;228.38;;;104.60;;
36415;SDS011;22447;44.530;18.620;2023-01-05T05:49:24;248.32;;;112.68;;
36415;SDS011;22447;44.530;18.620;2023-01-05T05:51:50;225.60;;;106.45;;
36415;SDS011;22447;44.530;18.620;2023-01-05T05:54:16;254.32;;;113.82;;
36415;SDS011;22447;44.530;18.620;2023-01-05T05:56:42;239.40;;;111.82;;
36415;SDS011;22447;44.530;18.620;2023-01-05T05:59:07;268.92;;;114.68;;
36415;SDS011;22447;44.530;18.620;2023-01-05T06:01:33;239.07;;;102.57;;
36415;SDS011;22447;44.530;18.620;2023-01-05T06:03:59;272.42;;;128.52;;
36415;SDS011;22447;44.530;18.620;2023-01-05T06:06:25;257.90;;;120.78;;
36415;SDS011;22447;44.530;18.620;2023-01-05T06:08:51;244.10;;;110.45;;
36415;SDS011;22447;44.530;18.620;2023-01-05T06:11:17;246.25;;;107.88;;
36415;SDS011;22447;44.530;18.620;2023-01-05T06:13:43;225.32;;;107.10;;
36415;SDS011;22447;44.530;18.620;2023-01-05T06:16:09;242.25;;;110.45;;
36415;SDS011;22447;44.530;18.620;2023-01-05T06:18:35;257.67;;;119.35;;
36415;SDS011;22447;44.530;18.620;2023-01-05T06:21:10;243.23;;;111.15;;
36415;SDS011;22447;44.530;18.620;2023-01-05T06:23:36;232.75;;;109.93;;
36415;SDS011;22447;44.530;18.620;2023-01-05T06:26:02;232.30;;;102.32;;
36415;SDS011;22447;44.530;18.620;2023-01-05T06:28:28;219.30;;;100.93;;
36415;SDS011;22447;44.530;18.620;2023-01-05T06:30:57;211.23;;;97.63;;
36415;SDS011;22447;44.530;18.620;2023-01-05T06:33:23;218.13;;;102.20;;
36415;SDS011;22447;44.530;18.620;2023-01-05T06:35:49;206.15;;;96.35;;
36415;SDS011;22447;44.530;18.620;2023-01-05T06:38:15;221.77;;;102.88;;
36415;SDS011;22447;44.530;18.620;2023-01-05T06:40:42;230.60;;;103.28;;
36415;SDS011;22447;44.530;18.620;2023-01-05T06:43:10;229.32;;;106.55;;
36415;SDS011;22447;44.530;18.620;2023-01-05T06:45:36;209.05;;;94.10;;
36415;SDS011;22447;44.530;18.620;2023-01-05T06:48:03;229.35;;;98.90;;
36415;SDS011;22447;44.530;18.620;2023-01-05T06:50:29;222.32;;;101.57;;
36415;SDS011;22447;44.530;18.620;2023-01-05T06:52:56;231.60;;;101.30;;
36415;SDS011;22447;44.530;18.620;2023-01-05T06:55:22;206.48;;;87.95;;
36415;SDS011;22447;44.530;18.620;2023-01-05T06:57:49;184.68;;;87.78;;
36415;SDS011;22447;44.530;18.620;2023-01-05T07:00:15;179.05;;;81.72;;
36415;SDS011;22447;44.530;18.620;2023-01-05T07:02:43;169.32;;;76.97;;
36415;SDS011;22447;44.530;18.620;2023-01-05T07:05:09;171.02;;;74.50;;
36415;SDS011;22447;44.530;18.620;2023-01-05T07:07:35;156.00;;;69.50;;
36415;SDS011;22447;44.530;18.620;2023-01-05T07:10:01;151.45;;;68.85;;
36415;SDS011;22447;44.530;18.620;2023-01-05T07:12:28;164.95;;;72.25;;
36415;SDS011;22447;44.530;18.620;2023-01-05T07:14:54;161.25;;;72.70;;
36415;SDS011;22447;44.530;18.620;2023-01-05T07:17:20;168.90;;;75.72;;
36415;SDS011;22447;44.530;18.620;2023-01-05T07:19:46;194.18;;;79.40;;
36415;SDS011;22447;44.530;18.620;2023-01-05T07:22:11;180.02;;;83.38;;
36415;SDS011;22447;44.530;18.620;2023-01-05T07:24:37;200.25;;;92.70;;
36415;SDS011;22447;44.530;18.620;2023-01-05T07:27:03;167.05;;;69.45;;
36415;SDS011;22447;44.530;18.620;2023-01-05T07:29:32;130.77;;;61.97;;
36415;SDS011;22447;44.530;18.620;2023-01-05T07:31:58;135.05;;;59.15;;
36415;SDS011;22447;44.530;18.620;2023-01-05T07:34:25;127.10;;;59.25;;
36415;SDS011;22447;44.530;18.620;2023-01-05T07:36:51;126.80;;;60.67;;
36415;SDS011;22447;44.530;18.620;2023-01-05T07:39:17;139.15;;;62.42;;
36415;SDS011;22447;44.530;18.620;2023-01-05T07:41:43;144.48;;;65.28;;
36415;SDS011;22447;44.530;18.620;2023-01-05T07:44:14;137.13;;;66.18;;
36415;SDS011;22447;44.530;18.620;2023-01-05T07:46:40;140.95;;;65.22;;
36415;SDS011;22447;44.530;18.620;2023-01-05T07:49:09;168.00;;;73.47;;
36415;SDS011;22447;44.530;18.620;2023-01-05T07:51:35;163.57;;;75.63;;
36415;SDS011;22447;44.530;18.620;2023-01-05T07:54:01;164.45;;;77.35;;
36415;SDS011;22447;44.530;18.620;2023-01-05T07:56:27;158.07;;;72.38;;
36415;SDS011;22447;44.530;18.620;2023-01-05T07:58:53;161.15;;;77.82;;
36415;SDS011;22447;44.530;18.620;2023-01-05T08:01:19;186.82;;;86.25;;
36415;SDS011;22447;44.530;18.620;2023-01-05T08:03:45;175.93;;;79.10;;
36415;SDS011;22447;44.530;18.620;2023-01-05T08:06:14;173.80;;;82.13;;
36415;SDS011;22447;44.530;18.620;2023-01-05T08:08:43;178.38;;;81.00;;
36415;SDS011;22447;44.530;18.620;2023-01-05T08:11:10;174.52;;;78.47;;
36415;SDS011;22447;44.530;18.620;2023-01-05T08:13:39;199.98;;;87.50;;
36415;SDS011;22447;44.530;18.620;2023-01-05T08:16:32;267.95;;;108.95;;
36415;SDS011;22447;44.530;18.620;2023-01-05T08:18:58;419.58;;;166.32;;
36415;SDS011;22447;44.530;18.620;2023-01-05T08:21:25;322.30;;;139.52;;
36415;SDS011;22447;44.530;18.620;2023-01-05T08:23:51;308.25;;;131.23;;
36415;SDS011;22447;44.530;18.620;2023-01-05T08:26:18;209.68;;;105.03;;
36415;SDS011;22447;44.530;18.620;2023-01-05T08:28:46;238.80;;;111.38;;
36415;SDS011;22447;44.530;18.620;2023-01-05T08:31:14;262.23;;;121.63;;
36415;SDS011;22447;44.530;18.620;2023-01-05T08:33:50;268.48;;;125.18;;
36415;SDS011;22447;44.530;18.620;2023-01-05T08:36:19;265.27;;;124.03;;
36415;SDS011;22447;44.530;18.620;2023-01-05T08:38:46;270.30;;;123.95;;
36415;SDS011;22447;44.530;18.620;2023-01-05T08:41:16;282.00;;;129.05;;
36415;SDS011;22447;44.530;18.620;2023-01-05T08:43:47;264.83;;;127.38;;
36415;SDS011;22447;44.530;18.620;2023-01-05T08:46:18;221.80;;;109.05;;
36415;SDS011;22447;44.530;18.620;2023-01-05T08:48:49;278.52;;;132.60;;
36415;SDS011;22447;44.530;18.620;2023-01-05T08:51:15;271.63;;;130.23;;
36415;SDS011;22447;44.530;18.620;2023-01-05T08:53:42;328.00;;;157.70;;
36415;SDS011;22447;44.530;18.620;2023-01-05T08:56:08;363.75;;;177.18;;
36415;SDS011;22447;44.530;18.620;2023-01-05T08:58:35;341.15;;;166.63;;
36415;SDS011;22447;44.530;18.620;2023-01-05T09:01:06;322.70;;;168.30;;
36415;SDS011;22447;44.530;18.620;2023-01-05T09:03:32;290.48;;;150.55;;
36415;SDS011;22447;44.530;18.620;2023-01-05T09:05:58;300.08;;;153.05;;
36415;SDS011;22447;44.530;18.620;2023-01-05T09:08:27;264.25;;;136.73;;
36415;SDS011;22447;44.530;18.620;2023-01-05T09:10:54;267.30;;;137.65;;
36415;SDS011;22447;44.530;18.620;2023-01-05T09:13:20;274.38;;;139.77;;
36415;SDS011;22447;44.530;18.620;2023-01-05T09:15:45;280.55;;;143.45;;
36415;SDS011;22447;44.530;18.620;2023-01-05T09:18:11;273.45;;;136.60;;
36415;SDS011;22447;44.530;18.620;2023-01-05T09:20:37;249.90;;;132.10;;
36415;SDS011;22447;44.530;18.620;2023-01-05T09:23:03;253.77;;;133.18;;
36415;SDS011;22447;44.530;18.620;2023-01-05T09:25:29;249.55;;;126.35;;
36415;SDS011;22447;44.530;18.620;2023-01-05T09:27:57;231.07;;;123.38;;
36415;SDS011;22447;44.530;18.620;2023-01-05T09:30:24;224.88;;;123.10;;
36415;SDS011;22447;44.530;18.620;2023-01-05T09:32:49;220.52;;;118.25;;
36415;SDS011;22447;44.530;18.620;2023-01-05T09:35:15;228.00;;;128.30;;
36415;SDS011;22447;44.530;18.620;2023-01-05T09:37:47;239.95;;;132.07;;
36415;SDS011;22447;44.530;18.620;2023-01-05T09:40:13;249.68;;;132.25;;
36415;SDS011;22447;44.530;18.620;2023-01-05T09:42:40;231.55;;;126.20;;
36415;SDS011;22447;44.530;18.620;2023-01-05T09:45:09;228.77;;;124.63;;
36415;SDS011;22447;44.530;18.620;2023-01-05T09:47:39;227.48;;;120.65;;
36415;SDS011;22447;44.530;18.620;2023-01-05T09:50:16;227.77;;;123.10;;
36415;SDS011;22447;44.530;18.620;2023-01-05T09:52:44;216.20;;;116.50;;
36415;SDS011;22447;44.530;18.620;2023-01-05T09:55:20;218.00;;;113.55;;
36415;SDS011;22447;44.530;18.620;2023-01-05T09:57:53;204.65;;;113.35;;
36415;SDS011;22447;44.530;18.620;2023-01-05T10:00:24;201.43;;;111.32;;
36415;SDS011;22447;44.530;18.620;2023-01-05T10:02:52;193.00;;;102.72;;
36415;SDS011;22447;44.530;18.620;2023-01-05T10:05:19;201.38;;;111.28;;
36415;SDS011;22447;44.530;18.620;2023-01-05T10:07:54;213.48;;;115.13;;
36415;SDS011;22447;44.530;18.620;2023-01-05T10:13:03;168.30;;;97.47;;
36415;SDS011;22447;44.530;18.620;2023-01-05T10:18:14;149.23;;;88.32;;
36415;SDS011;22447;44.530;18.620;2023-01-05T10:28:47;125.07;;;66.40;;
36415;SDS011;22447;44.530;18.620;2023-01-05T10:33:50;103.93;;;56.65;;
36415;SDS011;22447;44.530;18.620;2023-01-05T10:47:10;66.13;;;41.33;;
36415;SDS011;22447;44.530;18.620;2023-01-05T10:49:38;130.48;;;47.67;;
36415;SDS011;22447;44.530;18.620;2023-01-05T10:52:11;77.63;;;39.63;;
36415;SDS011;22447;44.530;18.620;2023-01-05T10:54:40;68.72;;;35.72;;
36415;SDS011;22447;44.530;18.620;2023-01-05T11:00:05;70.25;;;39.72;;
36415;SDS011;22447;44.530;18.620;2023-01-05T11:05:30;73.68;;;40.55;;
36415;SDS011;22447;44.530;18.620;2023-01-05T11:08:05;97.00;;;44.58;;
36415;SDS011;22447;44.530;18.620;2023-01-05T11:10:39;82.65;;;42.30;;
36415;SDS011;22447;44.530;18.620;2023-01-05T11:13:17;83.70;;;43.08;;
36415;SDS011;22447;44.530;18.620;2023-01-05T11:16:14;83.22;;;45.47;;
36415;SDS011;22447;44.530;18.620;2023-01-05T11:21:21;77.38;;;45.10;;
36415;SDS011;22447;44.530;18.620;2023-01-05T11:23:50;80.72;;;45.15;;
36415;SDS011;22447;44.530;18.620;2023-01-05T11:28:58;79.10;;;42.58;;
36415;SDS011;22447;44.530;18.620;2023-01-05T11:32:02;75.72;;;41.63;;
36415;SDS011;22447;44.530;18.620;2023-01-05T11:34:43;95.70;;;44.90;;
36415;SDS011;22447;44.530;18.620;2023-01-05T11:39:59;82.50;;;41.72;;
36415;SDS011;22447;44.530;18.620;2023-01-05T11:45:01;81.32;;;39.78;;
36415;SDS011;22447;44.530;18.620;2023-01-05T11:47:59;58.95;;;29.55;;
36415;SDS011;22447;44.530;18.620;2023-01-05T11:50:29;77.82;;;37.65;;
36415;SDS011;22447;44.530;18.620;2023-01-05T11:53:00;78.00;;;39.03;;
36415;SDS011;22447;44.530;18.620;2023-01-05T12:08:53;86.47;;;43.20;;
36415;SDS011;22447;44.530;18.620;2023-01-05T12:11:46;82.20;;;44.85;;
36415;SDS011;22447;44.530;18.620;2023-01-05T12:17:13;95.63;;;51.78;;
36415;SDS011;22447;44.530;18.620;2023-01-05T12:30:46;92.68;;;53.45;;
36415;SDS011;22447;44.530;18.620;2023-01-05T12:33:39;102.05;;;52.72;;
36415;SDS011;22447;44.530;18.620;2023-01-05T12:47:51;79.00;;;42.67;;
36415;SDS011;22447;44.530;18.620;2023-01-05T12:50:38;79.45;;;42.78;;
36415;SDS011;22447;44.530;18.620;2023-01-05T12:56:06;82.95;;;42.97;;
36415;SDS011;22447;44.530;18.620;2023-01-05T12:58:58;78.55;;;40.83;;
36415;SDS011;22447;44.530;18.620;2023-01-05T13:01:41;74.68;;;42.45;;
36415;SDS011;22447;44.530;18.620;2023-01-05T13:05:03;91.22;;;43.83;;
36415;SDS011;22447;44.530;18.620;2023-01-05T13:07:16;91.38;;;45.45;;
36415;SDS011;22447;44.530;18.620;2023-01-05T13:09:58;79.32;;;43.05;;
36415;SDS011;22447;44.530;18.620;2023-01-05T13:12:27;83.40;;;44.28;;
36415;SDS011;22447;44.530;18.620;2023-01-05T13:15:11;81.85;;;44.58;;
36415;SDS011;22447;44.530;18.620;2023-01-05T13:17:41;75.38;;;41.47;;
36415;SDS011;22447;44.530;18.620;2023-01-05T13:22:59;83.07;;;40.50;;
36415;SDS011;22447;44.530;18.620;2023-01-05T13:25:45;80.78;;;41.25;;
36415;SDS011;22447;44.530;18.620;2023-01-05T13:28:32;86.10;;;44.10;;
36415;SDS011;22447;44.530;18.620;2023-01-05T13:42:03;88.35;;;46.08;;
36415;SDS011;22447;44.530;18.620;2023-01-05T13:44:45;88.13;;;44.08;;
36415;SDS011;22447;44.530;18.620;2023-01-05T13:53:08;81.15;;;44.47;;
36415;SDS011;22447;44.530;18.620;2023-01-05T13:55:36;101.88;;;45.78;;
36415;SDS011;22447;44.530;18.620;2023-01-05T13:58:36;86.40;;;46.38;;
36415;SDS011;22447;44.530;18.620;2023-01-05T14:03:59;96.18;;;46.90;;
36415;SDS011;22447;44.530;18.620;2023-01-05T14:06:26;81.93;;;45.83;;
36415;SDS011;22447;44.530;18.620;2023-01-05T14:09:12;93.20;;;46.92;;
36415;SDS011;22447;44.530;18.620;2023-01-05T14:17:56;81.60;;;43.08;;
36415;SDS011;22447;44.530;18.620;2023-01-05T14:26:02;87.72;;;46.58;;
36415;SDS011;22447;44.530;18.620;2023-01-05T14:31:39;95.22;;;48.22;;
36415;SDS011;22447;44.530;18.620;2023-01-05T14:34:02;106.25;;;47.53;;
36415;SDS011;22447;44.530;18.620;2023-01-05T14:41:45;102.60;;;47.67;;
36415;SDS011;22447;44.530;18.620;2023-01-05T14:44:45;92.82;;;47.97;;
36415;SDS011;22447;44.530;18.620;2023-01-05T14:47:17;93.20;;;48.63;;
36415;SDS011;22447;44.530;18.620;2023-01-05T14:49:59;87.22;;;45.83;;
36415;SDS011;22447;44.530;18.620;2023-01-05T14:55:32;94.13;;;46.45;;
36415;SDS011;22447;44.530;18.620;2023-01-05T14:58:09;97.28;;;45.45;;
36415;SDS011;22447;44.530;18.620;2023-01-05T15:03:47;114.03;;;48.92;;
36415;SDS011;22447;44.530;18.620;2023-01-05T15:11:46;117.40;;;56.17;;
36415;SDS011;22447;44.530;18.620;2023-01-05T15:17:27;113.32;;;50.25;;
36415;SDS011;22447;44.530;18.620;2023-01-05T15:25:53;143.77;;;56.25;;
36415;SDS011;22447;44.530;18.620;2023-01-05T15:36:57;149.35;;;77.03;;
36415;SDS011;22447;44.530;18.620;2023-01-05T15:39:52;214.10;;;115.60;;
36415;SDS011;22447;44.530;18.620;2023-01-05T15:42:21;125.82;;;53.20;;
36415;SDS011;22447;44.530;18.620;2023-01-05T15:44:52;124.95;;;56.33;;
36415;SDS011;22447;44.530;18.620;2023-01-05T15:47:21;137.55;;;62.72;;
36415;SDS011;22447;44.530;18.620;2023-01-05T15:49:49;142.83;;;63.10;;
36415;SDS011;22447;44.530;18.620;2023-01-05T15:52:24;104.65;;;54.40;;
36415;SDS011;22447;44.530;18.620;2023-01-05T15:55:01;104.43;;;54.38;;
36415;SDS011;22447;44.530;18.620;2023-01-05T15:57:52;130.60;;;64.53;;
36415;SDS011;22447;44.530;18.620;2023-01-05T16:00:22;161.40;;;75.78;;
36415;SDS011;22447;44.530;18.620;2023-01-05T16:02:50;160.90;;;75.90;;
36415;SDS011;22447;44.530;18.620;2023-01-05T16:05:23;154.23;;;78.57;;
36415;SDS011;22447;44.530;18.620;2023-01-05T16:10:27;177.25;;;76.78;;
36415;SDS011;22447;44.530;18.620;2023-01-05T16:15:47;200.02;;;95.90;;
36415;SDS011;22447;44.530;18.620;2023-01-05T16:18:17;226.48;;;105.95;;
36415;SDS011;22447;44.530;18.620;2023-01-05T16:20:48;229.80;;;114.20;;
36415;SDS011;22447;44.530;18.620;2023-01-05T16:26:01;180.57;;;81.57;;
36415;SDS011;22447;44.530;18.620;2023-01-05T16:28:28;178.07;;;84.28;;
36415;SDS011;22447;44.530;18.620;2023-01-05T16:30:54;162.05;;;79.53;;
36415;SDS011;22447;44.530;18.620;2023-01-05T16:33:30;174.25;;;76.70;;
36415;SDS011;22447;44.530;18.620;2023-01-05T16:36:10;174.13;;;83.28;;
36415;SDS011;22447;44.530;18.620;2023-01-05T16:38:38;200.43;;;90.85;;
36415;SDS011;22447;44.530;18.620;2023-01-05T16:41:09;217.30;;;106.88;;
36415;SDS011;22447;44.530;18.620;2023-01-05T16:43:56;219.95;;;104.55;;
36415;SDS011;22447;44.530;18.620;2023-01-05T16:46:37;267.50;;;125.15;;
36415;SDS011;22447;44.530;18.620;2023-01-05T16:49:12;244.07;;;110.10;;
36415;SDS011;22447;44.530;18.620;2023-01-05T16:51:57;216.65;;;99.20;;
36415;SDS011;22447;44.530;18.620;2023-01-05T16:54:28;207.18;;;95.57;;
36415;SDS011;22447;44.530;18.620;2023-01-05T16:57:02;215.13;;;97.47;;
36415;SDS011;22447;44.530;18.620;2023-01-05T16:59:53;198.63;;;96.68;;
36415;SDS011;22447;44.530;18.620;2023-01-05T17:05:12;280.10;;;129.40;;
36415;SDS011;22447;44.530;18.620;2023-01-05T17:07:40;297.70;;;135.82;;
36415;SDS011;22447;44.530;18.620;2023-01-05T17:10:13;273.00;;;128.25;;
36415;SDS011;22447;44.530;18.620;2023-01-05T17:13:02;349.33;;;168.52;;
36415;SDS011;22447;44.530;18.620;2023-01-05T17:15:31;293.95;;;140.88;;
36415;SDS011;22447;44.530;18.620;2023-01-05T17:17:58;290.35;;;136.38;;
36415;SDS011;22447;44.530;18.620;2023-01-05T17:20:27;398.02;;;183.73;;
36415;SDS011;22447;44.530;18.620;2023-01-05T17:22:56;513.63;;;241.02;;
36415;SDS011;22447;44.530;18.620;2023-01-05T17:25:22;523.22;;;257.15;;
36415;SDS011;22447;44.530;18.620;2023-01-05T17:27:52;462.38;;;211.32;;
36415;SDS011;22447;44.530;18.620;2023-01-05T17:30:19;431.20;;;199.55;;
36415;SDS011;22447;44.530;18.620;2023-01-05T17:32:46;400.27;;;189.15;;
36415;SDS011;22447;44.530;18.620;2023-01-05T17:35:12;426.05;;;203.30;;
36415;SDS011;22447;44.530;18.620;2023-01-05T17:37:38;381.77;;;185.85;;
36415;SDS011;22447;44.530;18.620;2023-01-05T17:40:05;396.75;;;186.27;;
36415;SDS011;22447;44.530;18.620;2023-01-05T17:42:32;382.00;;;177.07;;